sensor_id;sensor_type;location;lat;lon;timestamp;P1;durP1;ratioP1;P2;durP2;ratioP2
72319;SDS011;60269;52.502;16.732;2023-06-10T00:00:02;12.63;;;5.20;;
72319;SDS011;60269;52.502;16.732;2023-06-10T00:03:37;13.02;;;6.32;;
72319;SDS011;60269;52.502;16.732;2023-06-10T00:07:09;10.65;;;6.03;;
72319;SDS011;60269;52.502;16.732;2023-06-10T00:10:41;12.52;;;6.20;;
72319;SDS011;60269;52.502;16.732;2023-06-10T00:14:13;12.23;;;5.37;;
72319;SDS011;60269;52.502;16.732;2023-06-10T00:17:46;17.17;;;6.80;;
72319;SDS011;60269;52.502;16.732;2023-06-10T00:21:18;10.70;;;5.65;;
72319;SDS011;60269;52.502;16.732;2023-06-10T00:24:50;11.32;;;5.53;;
72319;SDS011;60269;52.502;16.732;2023-06-10T00:28:23;11.57;;;5.63;;
72319;SDS011;60269;52.502;16.732;2023-06-10T00:31:55;11.40;;;6.10;;
72319;SDS011;60269;52.502;16.732;2023-06-10T00:35:29;12.10;;;5.78;;
72319;SDS011;60269;52.502;16.732;2023-06-10T00:39:01;12.13;;;5.68;;
72319;SDS011;60269;52.502;16.732;2023-06-10T00:42:35;14.65;;;5.50;;
72319;SDS011;60269;52.502;16.732;2023-06-10T00:46:07;14.10;;;5.67;;
72319;SDS011;60269;52.502;16.732;2023-06-10T00:49:40;12.93;;;5.65;;
72319;SDS011;60269;52.502;16.732;2023-06-10T00:53:12;9.35;;;4.93;;
72319;SDS011;60269;52.502;16.732;2023-06-10T00:56:44;10.23;;;5.43;;
72319;SDS011;60269;52.502;16.732;2023-06-10T01:00:17;14.53;;;5.30;;
72319;SDS011;60269;52.502;16.732;2023-06-10T01:03:50;14.13;;;4.75;;
72319;SDS011;60269;52.502;16.732;2023-06-10T01:07:26;9.75;;;4.53;;
72319;SDS011;60269;52.502;16.732;2023-06-10T01:11:02;10.43;;;4.93;;
72319;SDS011;60269;52.502;16.732;2023-06-10T01:14:39;16.33;;;5.07;;
72319;SDS011;60269;52.502;16.732;2023-06-10T01:18:16;13.27;;;5.68;;
72319;SDS011;60269;52.502;16.732;2023-06-10T01:21:50;11.10;;;4.90;;
72319;SDS011;60269;52.502;16.732;2023-06-10T01:25:24;13.10;;;4.82;;
72319;SDS011;60269;52.502;16.732;2023-06-10T01:29:08;12.83;;;4.33;;
72319;SDS011;60269;52.502;16.732;2023-06-10T01:32:53;11.98;;;4.80;;
72319;SDS011;60269;52.502;16.732;2023-06-10T01:36:26;10.82;;;4.55;;
72319;SDS011;60269;52.502;16.732;2023-06-10T01:39:59;10.67;;;5.17;;
72319;SDS011;60269;52.502;16.732;2023-06-10T01:43:36;12.20;;;4.60;;
72319;SDS011;60269;52.502;16.732;2023-06-10T01:47:09;10.52;;;4.80;;
72319;SDS011;60269;52.502;16.732;2023-06-10T01:50:41;10.27;;;4.57;;
72319;SDS011;60269;52.502;16.732;2023-06-10T01:54:13;12.50;;;4.77;;
72319;SDS011;60269;52.502;16.732;2023-06-10T01:57:45;12.77;;;4.53;;
72319;SDS011;60269;52.502;16.732;2023-06-10T02:01:17;11.82;;;4.30;;
72319;SDS011;60269;52.502;16.732;2023-06-10T02:04:50;13.23;;;4.32;;
72319;SDS011;60269;52.502;16.732;2023-06-10T02:08:22;11.40;;;4.85;;
72319;SDS011;60269;52.502;16.732;2023-06-10T02:11:54;10.13;;;4.70;;
72319;SDS011;60269;52.502;16.732;2023-06-10T02:15:26;12.65;;;4.85;;
72319;SDS011;60269;52.502;16.732;2023-06-10T02:18:58;10.38;;;4.88;;
72319;SDS011;60269;52.502;16.732;2023-06-10T02:22:32;13.43;;;4.50;;
72319;SDS011;60269;52.502;16.732;2023-06-10T02:26:04;12.70;;;4.80;;
72319;SDS011;60269;52.502;16.732;2023-06-10T02:29:37;12.52;;;4.38;;
72319;SDS011;60269;52.502;16.732;2023-06-10T02:33:09;14.65;;;4.55;;
72319;SDS011;60269;52.502;16.732;2023-06-10T02:36:45;10.98;;;4.05;;
72319;SDS011;60269;52.502;16.732;2023-06-10T02:40:17;13.73;;;5.60;;
72319;SDS011;60269;52.502;16.732;2023-06-10T02:43:49;11.15;;;5.03;;
72319;SDS011;60269;52.502;16.732;2023-06-10T02:47:21;12.10;;;4.80;;
72319;SDS011;60269;52.502;16.732;2023-06-10T02:50:53;13.38;;;5.15;;
72319;SDS011;60269;52.502;16.732;2023-06-10T02:54:25;10.43;;;4.33;;
72319;SDS011;60269;52.502;16.732;2023-06-10T02:57:57;13.70;;;4.80;;
72319;SDS011;60269;52.502;16.732;2023-06-10T03:01:31;12.80;;;4.50;;
72319;SDS011;60269;52.502;16.732;2023-06-10T03:05:04;11.45;;;4.15;;
72319;SDS011;60269;52.502;16.732;2023-06-10T03:08:37;10.83;;;5.13;;
72319;SDS011;60269;52.502;16.732;2023-06-10T03:12:10;14.93;;;4.93;;
72319;SDS011;60269;52.502;16.732;2023-06-10T03:15:42;11.02;;;4.97;;
72319;SDS011;60269;52.502;16.732;2023-06-10T03:19:14;11.82;;;4.70;;
72319;SDS011;60269;52.502;16.732;2023-06-10T03:22:46;11.03;;;4.87;;
72319;SDS011;60269;52.502;16.732;2023-06-10T03:26:18;10.68;;;4.68;;
72319;SDS011;60269;52.502;16.732;2023-06-10T03:29:53;12.68;;;4.85;;
72319;SDS011;60269;52.502;16.732;2023-06-10T03:33:25;11.20;;;4.80;;
72319;SDS011;60269;52.502;16.732;2023-06-10T03:36:58;14.53;;;4.47;;
72319;SDS011;60269;52.502;16.732;2023-06-10T03:40:31;11.33;;;4.30;;
72319;SDS011;60269;52.502;16.732;2023-06-10T03:44:03;10.35;;;4.53;;
72319;SDS011;60269;52.502;16.732;2023-06-10T03:47:36;11.50;;;4.45;;
72319;SDS011;60269;52.502;16.732;2023-06-10T03:51:09;11.90;;;4.60;;
72319;SDS011;60269;52.502;16.732;2023-06-10T03:54:41;12.47;;;4.40;;
72319;SDS011;60269;52.502;16.732;2023-06-10T03:58:13;11.05;;;4.40;;
72319;SDS011;60269;52.502;16.732;2023-06-10T04:01:46;11.45;;;4.43;;
72319;SDS011;60269;52.502;16.732;2023-06-10T04:05:19;13.38;;;4.47;;
72319;SDS011;60269;52.502;16.732;2023-06-10T04:08:55;15.87;;;4.63;;
72319;SDS011;60269;52.502;16.732;2023-06-10T04:12:28;10.52;;;4.07;;
72319;SDS011;60269;52.502;16.732;2023-06-10T04:16:00;11.18;;;3.70;;
72319;SDS011;60269;52.502;16.732;2023-06-10T04:19:32;11.63;;;3.55;;
72319;SDS011;60269;52.502;16.732;2023-06-10T04:23:04;11.70;;;3.60;;
72319;SDS011;60269;52.502;16.732;2023-06-10T04:26:37;10.83;;;3.73;;
72319;SDS011;60269;52.502;16.732;2023-06-10T04:30:09;12.05;;;4.00;;
72319;SDS011;60269;52.502;16.732;2023-06-10T04:33:41;10.45;;;4.40;;
72319;SDS011;60269;52.502;16.732;2023-06-10T04:37:14;9.05;;;3.67;;
72319;SDS011;60269;52.502;16.732;2023-06-10T04:40:46;10.40;;;3.43;;
72319;SDS011;60269;52.502;16.732;2023-06-10T04:44:18;11.80;;;4.03;;
72319;SDS011;60269;52.502;16.732;2023-06-10T04:47:50;11.18;;;3.70;;
72319;SDS011;60269;52.502;16.732;2023-06-10T04:51:23;12.48;;;3.42;;
72319;SDS011;60269;52.502;16.732;2023-06-10T04:54:57;7.67;;;3.50;;
72319;SDS011;60269;52.502;16.732;2023-06-10T04:58:30;11.48;;;3.80;;
72319;SDS011;60269;52.502;16.732;2023-06-10T05:02:02;8.80;;;3.72;;
72319;SDS011;60269;52.502;16.732;2023-06-10T05:05:34;10.30;;;3.42;;
72319;SDS011;60269;52.502;16.732;2023-06-10T05:09:06;11.70;;;3.73;;
72319;SDS011;60269;52.502;16.732;2023-06-10T05:12:38;10.60;;;4.17;;
72319;SDS011;60269;52.502;16.732;2023-06-10T05:16:11;11.80;;;3.63;;
72319;SDS011;60269;52.502;16.732;2023-06-10T05:19:44;10.23;;;3.85;;
72319;SDS011;60269;52.502;16.732;2023-06-10T05:23:16;9.35;;;4.10;;
72319;SDS011;60269;52.502;16.732;2023-06-10T05:26:49;9.20;;;3.77;;
72319;SDS011;60269;52.502;16.732;2023-06-10T05:30:21;11.65;;;3.50;;
72319;SDS011;60269;52.502;16.732;2023-06-10T05:33:53;12.55;;;3.95;;
72319;SDS011;60269;52.502;16.732;2023-06-10T05:37:25;9.23;;;3.53;;
72319;SDS011;60269;52.502;16.732;2023-06-10T05:40:57;9.37;;;3.67;;
72319;SDS011;60269;52.502;16.732;2023-06-10T05:44:31;9.63;;;3.25;;
72319;SDS011;60269;52.502;16.732;2023-06-10T05:48:03;11.52;;;3.80;;
72319;SDS011;60269;52.502;16.732;2023-06-10T05:51:36;9.15;;;3.28;;
72319;SDS011;60269;52.502;16.732;2023-06-10T05:55:09;8.18;;;3.22;;
72319;SDS011;60269;52.502;16.732;2023-06-10T05:58:42;14.13;;;3.97;;
72319;SDS011;60269;52.502;16.732;2023-06-10T06:02:14;9.50;;;3.50;;
72319;SDS011;60269;52.502;16.732;2023-06-10T06:05:47;15.48;;;3.85;;
72319;SDS011;60269;52.502;16.732;2023-06-10T06:09:19;7.40;;;3.10;;
72319;SDS011;60269;52.502;16.732;2023-06-10T06:12:52;10.20;;;4.23;;
72319;SDS011;60269;52.502;16.732;2023-06-10T06:16:24;9.77;;;2.75;;
72319;SDS011;60269;52.502;16.732;2023-06-10T06:19:56;11.05;;;3.28;;
72319;SDS011;60269;52.502;16.732;2023-06-10T06:23:27;10.07;;;3.10;;
72319;SDS011;60269;52.502;16.732;2023-06-10T06:27:01;8.47;;;3.17;;
72319;SDS011;60269;52.502;16.732;2023-06-10T06:30:33;7.45;;;3.20;;
72319;SDS011;60269;52.502;16.732;2023-06-10T06:34:05;13.25;;;3.80;;
72319;SDS011;60269;52.502;16.732;2023-06-10T06:37:37;10.98;;;3.35;;
72319;SDS011;60269;52.502;16.732;2023-06-10T06:41:09;9.07;;;3.47;;
72319;SDS011;60269;52.502;16.732;2023-06-10T06:44:41;12.03;;;4.17;;
72319;SDS011;60269;52.502;16.732;2023-06-10T06:48:13;15.75;;;4.30;;
72319;SDS011;60269;52.502;16.732;2023-06-10T06:51:46;11.25;;;3.80;;
72319;SDS011;60269;52.502;16.732;2023-06-10T06:55:18;12.88;;;4.07;;
72319;SDS011;60269;52.502;16.732;2023-06-10T06:58:50;9.67;;;3.87;;
72319;SDS011;60269;52.502;16.732;2023-06-10T07:02:22;9.00;;;3.53;;
72319;SDS011;60269;52.502;16.732;2023-06-10T07:05:55;11.13;;;4.05;;
72319;SDS011;60269;52.502;16.732;2023-06-10T07:09:27;10.52;;;3.75;;
72319;SDS011;60269;52.502;16.732;2023-06-10T07:13:00;10.53;;;3.50;;
72319;SDS011;60269;52.502;16.732;2023-06-10T07:16:32;8.90;;;3.15;;
72319;SDS011;60269;52.502;16.732;2023-06-10T07:20:04;7.47;;;3.63;;
72319;SDS011;60269;52.502;16.732;2023-06-10T07:23:37;10.18;;;3.92;;
72319;SDS011;60269;52.502;16.732;2023-06-10T07:27:13;8.40;;;3.80;;
72319;SDS011;60269;52.502;16.732;2023-06-10T07:30:45;9.02;;;3.63;;
72319;SDS011;60269;52.502;16.732;2023-06-10T07:34:17;13.82;;;4.20;;
72319;SDS011;60269;52.502;16.732;2023-06-10T07:37:49;9.02;;;4.00;;
72319;SDS011;60269;52.502;16.732;2023-06-10T07:41:24;8.57;;;4.10;;
72319;SDS011;60269;52.502;16.732;2023-06-10T07:44:57;12.48;;;4.28;;
72319;SDS011;60269;52.502;16.732;2023-06-10T07:48:29;10.13;;;4.25;;
72319;SDS011;60269;52.502;16.732;2023-06-10T07:52:01;7.83;;;3.83;;
72319;SDS011;60269;52.502;16.732;2023-06-10T07:55:33;10.90;;;4.30;;
72319;SDS011;60269;52.502;16.732;2023-06-10T07:59:05;8.10;;;3.90;;
72319;SDS011;60269;52.502;16.732;2023-06-10T08:02:38;9.68;;;3.97;;
72319;SDS011;60269;52.502;16.732;2023-06-10T08:06:10;9.97;;;4.47;;
72319;SDS011;60269;52.502;16.732;2023-06-10T08:09:43;11.83;;;4.50;;
72319;SDS011;60269;52.502;16.732;2023-06-10T08:13:18;9.98;;;4.57;;
72319;SDS011;60269;52.502;16.732;2023-06-10T08:16:50;9.60;;;4.25;;
72319;SDS011;60269;52.502;16.732;2023-06-10T08:20:22;9.97;;;3.80;;
72319;SDS011;60269;52.502;16.732;2023-06-10T08:23:54;11.20;;;4.00;;
72319;SDS011;60269;52.502;16.732;2023-06-10T08:27:29;10.57;;;4.68;;
72319;SDS011;60269;52.502;16.732;2023-06-10T08:31:01;8.95;;;4.57;;
72319;SDS011;60269;52.502;16.732;2023-06-10T08:34:34;12.27;;;4.17;;
72319;SDS011;60269;52.502;16.732;2023-06-10T08:38:09;12.20;;;4.77;;
72319;SDS011;60269;52.502;16.732;2023-06-10T08:41:42;12.07;;;5.20;;
72319;SDS011;60269;52.502;16.732;2023-06-10T08:45:18;21.13;;;6.70;;
72319;SDS011;60269;52.502;16.732;2023-06-10T08:48:52;22.80;;;8.70;;
72319;SDS011;60269;52.502;16.732;2023-06-10T08:52:27;10.03;;;4.40;;
72319;SDS011;60269;52.502;16.732;2023-06-10T08:56:01;11.38;;;4.72;;
72319;SDS011;60269;52.502;16.732;2023-06-10T08:59:36;8.18;;;3.65;;
72319;SDS011;60269;52.502;16.732;2023-06-10T09:03:09;9.33;;;3.90;;
72319;SDS011;60269;52.502;16.732;2023-06-10T09:06:42;8.70;;;3.43;;
72319;SDS011;60269;52.502;16.732;2023-06-10T09:10:14;11.20;;;4.15;;
72319;SDS011;60269;52.502;16.732;2023-06-10T09:13:46;8.55;;;4.15;;
72319;SDS011;60269;52.502;16.732;2023-06-10T09:17:19;7.60;;;3.77;;
72319;SDS011;60269;52.502;16.732;2023-06-10T09:20:51;12.73;;;4.27;;
72319;SDS011;60269;52.502;16.732;2023-06-10T09:24:23;9.38;;;4.00;;
72319;SDS011;60269;52.502;16.732;2023-06-10T09:27:56;11.25;;;4.75;;
72319;SDS011;60269;52.502;16.732;2023-06-10T09:31:28;10.10;;;4.47;;
72319;SDS011;60269;52.502;16.732;2023-06-10T09:35:01;10.27;;;4.17;;
72319;SDS011;60269;52.502;16.732;2023-06-10T09:38:41;9.32;;;4.25;;
72319;SDS011;60269;52.502;16.732;2023-06-10T09:42:16;10.10;;;3.95;;
72319;SDS011;60269;52.502;16.732;2023-06-10T09:45:50;7.40;;;4.60;;
72319;SDS011;60269;52.502;16.732;2023-06-10T09:49:25;12.60;;;5.00;;
72319;SDS011;60269;52.502;16.732;2023-06-10T09:53:00;10.25;;;3.97;;
72319;SDS011;60269;52.502;16.732;2023-06-10T09:56:34;9.25;;;4.68;;
72319;SDS011;60269;52.502;16.732;2023-06-10T10:00:08;10.23;;;4.53;;
72319;SDS011;60269;52.502;16.732;2023-06-10T10:03:48;10.10;;;4.55;;
72319;SDS011;60269;52.502;16.732;2023-06-10T10:07:22;12.18;;;4.75;;
72319;SDS011;60269;52.502;16.732;2023-06-10T10:10:55;9.93;;;4.82;;
72319;SDS011;60269;52.502;16.732;2023-06-10T10:14:29;9.27;;;4.60;;
72319;SDS011;60269;52.502;16.732;2023-06-10T10:18:07;10.85;;;4.88;;
72319;SDS011;60269;52.502;16.732;2023-06-10T10:21:44;9.45;;;4.55;;
72319;SDS011;60269;52.502;16.732;2023-06-10T10:25:30;6.30;;;4.07;;
72319;SDS011;60269;52.502;16.732;2023-06-10T10:36:54;7.53;;;4.33;;
72319;SDS011;60269;52.502;16.732;2023-06-10T10:40:26;8.90;;;4.53;;
72319;SDS011;60269;52.502;16.732;2023-06-10T10:44:07;11.88;;;5.15;;
72319;SDS011;60269;52.502;16.732;2023-06-10T10:47:40;9.27;;;4.60;;
72319;SDS011;60269;52.502;16.732;2023-06-10T10:51:13;8.53;;;4.17;;
72319;SDS011;60269;52.502;16.732;2023-06-10T10:54:47;9.75;;;4.80;;
72319;SDS011;60269;52.502;16.732;2023-06-10T10:58:23;9.48;;;4.75;;
72319;SDS011;60269;52.502;16.732;2023-06-10T11:01:58;9.87;;;4.70;;
72319;SDS011;60269;52.502;16.732;2023-06-10T11:05:37;11.23;;;4.73;;
72319;SDS011;60269;52.502;16.732;2023-06-10T11:09:26;9.63;;;4.68;;
72319;SDS011;60269;52.502;16.732;2023-06-10T11:16:40;9.33;;;4.40;;
72319;SDS011;60269;52.502;16.732;2023-06-10T11:20:29;6.90;;;3.90;;
72319;SDS011;60269;52.502;16.732;2023-06-10T11:24:20;11.60;;;5.07;;
72319;SDS011;60269;52.502;16.732;2023-06-10T11:27:53;7.50;;;4.87;;
72319;SDS011;60269;52.502;16.732;2023-06-10T11:31:26;7.43;;;4.77;;
72319;SDS011;60269;52.502;16.732;2023-06-10T11:35:05;8.93;;;5.45;;
72319;SDS011;60269;52.502;16.732;2023-06-10T11:38:42;9.35;;;4.75;;
72319;SDS011;60269;52.502;16.732;2023-06-10T11:42:16;14.10;;;4.97;;
72319;SDS011;60269;52.502;16.732;2023-06-10T11:45:48;8.55;;;5.10;;
72319;SDS011;60269;52.502;16.732;2023-06-10T11:49:27;9.35;;;4.72;;
72319;SDS011;60269;52.502;16.732;2023-06-10T11:53:00;10.17;;;5.53;;
72319;SDS011;60269;52.502;16.732;2023-06-10T11:56:32;7.88;;;4.90;;
72319;SDS011;60269;52.502;16.732;2023-06-10T12:00:05;9.70;;;4.70;;
72319;SDS011;60269;52.502;16.732;2023-06-10T12:03:39;8.63;;;5.50;;
72319;SDS011;60269;52.502;16.732;2023-06-10T12:07:20;10.03;;;5.20;;
72319;SDS011;60269;52.502;16.732;2023-06-10T12:10:55;11.95;;;4.68;;
72319;SDS011;60269;52.502;16.732;2023-06-10T12:18:32;9.17;;;4.73;;
72319;SDS011;60269;52.502;16.732;2023-06-10T12:22:04;8.52;;;5.95;;
72319;SDS011;60269;52.502;16.732;2023-06-10T12:25:37;7.75;;;5.30;;
72319;SDS011;60269;52.502;16.732;2023-06-10T12:29:23;9.90;;;5.20;;
72319;SDS011;60269;52.502;16.732;2023-06-10T12:32:56;9.18;;;4.75;;
72319;SDS011;60269;52.502;16.732;2023-06-10T12:36:29;10.05;;;5.72;;
72319;SDS011;60269;52.502;16.732;2023-06-10T12:40:04;8.45;;;4.38;;
72319;SDS011;60269;52.502;16.732;2023-06-10T12:43:41;9.30;;;4.97;;
72319;SDS011;60269;52.502;16.732;2023-06-10T12:47:42;9.25;;;4.28;;
72319;SDS011;60269;52.502;16.732;2023-06-10T12:51:16;6.93;;;4.38;;
72319;SDS011;60269;52.502;16.732;2023-06-10T12:54:48;11.13;;;4.60;;
72319;SDS011;60269;52.502;16.732;2023-06-10T12:58:20;7.95;;;4.57;;
72319;SDS011;60269;52.502;16.732;2023-06-10T13:01:54;8.43;;;4.65;;
72319;SDS011;60269;52.502;16.732;2023-06-10T13:05:27;8.93;;;5.07;;
72319;SDS011;60269;52.502;16.732;2023-06-10T13:09:00;8.45;;;4.35;;
72319;SDS011;60269;52.502;16.732;2023-06-10T13:12:32;7.57;;;4.40;;
72319;SDS011;60269;52.502;16.732;2023-06-10T13:16:18;8.65;;;4.35;;
72319;SDS011;60269;52.502;16.732;2023-06-10T13:19:50;11.00;;;6.07;;
72319;SDS011;60269;52.502;16.732;2023-06-10T13:23:22;8.82;;;4.45;;
72319;SDS011;60269;52.502;16.732;2023-06-10T13:26:54;8.63;;;4.65;;
72319;SDS011;60269;52.502;16.732;2023-06-10T13:30:28;8.17;;;5.10;;
72319;SDS011;60269;52.502;16.732;2023-06-10T13:34:00;8.40;;;5.05;;
72319;SDS011;60269;52.502;16.732;2023-06-10T13:37:32;9.23;;;4.57;;
72319;SDS011;60269;52.502;16.732;2023-06-10T13:41:05;10.50;;;4.67;;
72319;SDS011;60269;52.502;16.732;2023-06-10T13:44:38;9.88;;;5.07;;
72319;SDS011;60269;52.502;16.732;2023-06-10T13:48:10;9.63;;;5.40;;
72319;SDS011;60269;52.502;16.732;2023-06-10T13:51:44;10.73;;;5.28;;
72319;SDS011;60269;52.502;16.732;2023-06-10T13:55:17;8.93;;;5.30;;
72319;SDS011;60269;52.502;16.732;2023-06-10T13:58:51;8.68;;;4.65;;
72319;SDS011;60269;52.502;16.732;2023-06-10T14:02:23;7.90;;;4.60;;
72319;SDS011;60269;52.502;16.732;2023-06-10T14:05:57;8.37;;;4.40;;
72319;SDS011;60269;52.502;16.732;2023-06-10T14:09:29;8.95;;;4.30;;
72319;SDS011;60269;52.502;16.732;2023-06-10T14:13:01;11.77;;;5.60;;
72319;SDS011;60269;52.502;16.732;2023-06-10T14:16:35;8.02;;;4.30;;
72319;SDS011;60269;52.502;16.732;2023-06-10T14:20:07;11.33;;;4.77;;
72319;SDS011;60269;52.502;16.732;2023-06-10T14:23:41;12.23;;;4.38;;
72319;SDS011;60269;52.502;16.732;2023-06-10T14:27:16;9.43;;;5.53;;
72319;SDS011;60269;52.502;16.732;2023-06-10T14:30:48;7.17;;;4.47;;
72319;SDS011;60269;52.502;16.732;2023-06-10T14:34:21;11.23;;;4.83;;
72319;SDS011;60269;52.502;16.732;2023-06-10T14:37:57;7.88;;;4.35;;
72319;SDS011;60269;52.502;16.732;2023-06-10T14:41:29;10.50;;;4.32;;
72319;SDS011;60269;52.502;16.732;2023-06-10T14:45:01;8.23;;;4.83;;
72319;SDS011;60269;52.502;16.732;2023-06-10T14:48:33;7.78;;;4.35;;
72319;SDS011;60269;52.502;16.732;2023-06-10T14:52:05;10.27;;;3.42;;
72319;SDS011;60269;52.502;16.732;2023-06-10T14:55:37;7.05;;;4.22;;
72319;SDS011;60269;52.502;16.732;2023-06-10T14:59:09;7.80;;;3.80;;
72319;SDS011;60269;52.502;16.732;2023-06-10T15:02:42;6.30;;;4.18;;
72319;SDS011;60269;52.502;16.732;2023-06-10T15:06:14;7.50;;;4.28;;
72319;SDS011;60269;52.502;16.732;2023-06-10T15:09:50;8.47;;;4.23;;
72319;SDS011;60269;52.502;16.732;2023-06-10T15:13:23;13.20;;;3.45;;
72319;SDS011;60269;52.502;16.732;2023-06-10T15:16:55;8.65;;;3.53;;
72319;SDS011;60269;52.502;16.732;2023-06-10T15:20:30;10.32;;;4.65;;
72319;SDS011;60269;52.502;16.732;2023-06-10T15:24:02;7.97;;;3.67;;
72319;SDS011;60269;52.502;16.732;2023-06-10T15:27:34;8.85;;;4.47;;
72319;SDS011;60269;52.502;16.732;2023-06-10T15:31:06;7.82;;;3.53;;
72319;SDS011;60269;52.502;16.732;2023-06-10T15:34:40;7.60;;;3.73;;
72319;SDS011;60269;52.502;16.732;2023-06-10T15:38:12;7.72;;;3.78;;
72319;SDS011;60269;52.502;16.732;2023-06-10T15:41:44;7.50;;;3.85;;
72319;SDS011;60269;52.502;16.732;2023-06-10T15:45:16;7.47;;;3.97;;
72319;SDS011;60269;52.502;16.732;2023-06-10T15:48:49;7.83;;;3.93;;
72319;SDS011;60269;52.502;16.732;2023-06-10T15:52:20;8.30;;;3.75;;
72319;SDS011;60269;52.502;16.732;2023-06-10T15:55:53;7.57;;;3.35;;
72319;SDS011;60269;52.502;16.732;2023-06-10T15:59:30;9.57;;;4.00;;
72319;SDS011;60269;52.502;16.732;2023-06-10T16:03:02;6.60;;;3.13;;
72319;SDS011;60269;52.502;16.732;2023-06-10T16:06:35;5.68;;;2.75;;
72319;SDS011;60269;52.502;16.732;2023-06-10T16:10:08;9.25;;;3.88;;
72319;SDS011;60269;52.502;16.732;2023-06-10T16:13:40;7.60;;;3.37;;
72319;SDS011;60269;52.502;16.732;2023-06-10T16:31:43;7.50;;;3.23;;
72319;SDS011;60269;52.502;16.732;2023-06-10T16:41:29;8.63;;;3.35;;
72319;SDS011;60269;52.502;16.732;2023-06-10T16:45:02;6.57;;;2.95;;
72319;SDS011;60269;52.502;16.732;2023-06-10T16:48:34;6.87;;;3.43;;
72319;SDS011;60269;52.502;16.732;2023-06-10T16:52:06;6.40;;;2.90;;
72319;SDS011;60269;52.502;16.732;2023-06-10T16:55:39;8.40;;;3.10;;
72319;SDS011;60269;52.502;16.732;2023-06-10T16:59:13;6.65;;;2.45;;
72319;SDS011;60269;52.502;16.732;2023-06-10T17:02:45;5.70;;;3.10;;
72319;SDS011;60269;52.502;16.732;2023-06-10T17:06:20;6.13;;;2.93;;
72319;SDS011;60269;52.502;16.732;2023-06-10T17:09:52;6.43;;;3.40;;
72319;SDS011;60269;52.502;16.732;2023-06-10T17:13:24;5.45;;;2.35;;
72319;SDS011;60269;52.502;16.732;2023-06-10T17:16:57;9.80;;;3.33;;
72319;SDS011;60269;52.502;16.732;2023-06-10T17:20:30;6.27;;;2.83;;
72319;SDS011;60269;52.502;16.732;2023-06-10T17:24:03;6.32;;;2.55;;
72319;SDS011;60269;52.502;16.732;2023-06-10T17:27:35;6.07;;;2.63;;
72319;SDS011;60269;52.502;16.732;2023-06-10T17:31:08;7.95;;;3.20;;
72319;SDS011;60269;52.502;16.732;2023-06-10T17:34:40;8.40;;;2.77;;
72319;SDS011;60269;52.502;16.732;2023-06-10T17:38:12;7.90;;;3.20;;
72319;SDS011;60269;52.502;16.732;2023-06-10T17:41:45;9.35;;;2.17;;
72319;SDS011;60269;52.502;16.732;2023-06-10T17:45:17;5.75;;;2.33;;
72319;SDS011;60269;52.502;16.732;2023-06-10T17:48:49;7.47;;;2.75;;
72319;SDS011;60269;52.502;16.732;2023-06-10T17:52:22;9.00;;;1.77;;
72319;SDS011;60269;52.502;16.732;2023-06-10T17:55:54;7.68;;;1.70;;
72319;SDS011;60269;52.502;16.732;2023-06-10T17:59:29;13.77;;;4.03;;
72319;SDS011;60269;52.502;16.732;2023-06-10T18:03:01;7.28;;;2.53;;
72319;SDS011;60269;52.502;16.732;2023-06-10T18:06:33;9.43;;;3.13;;
72319;SDS011;60269;52.502;16.732;2023-06-10T18:10:05;9.63;;;2.27;;
72319;SDS011;60269;52.502;16.732;2023-06-10T18:13:38;7.68;;;2.47;;
72319;SDS011;60269;52.502;16.732;2023-06-10T18:17:10;8.55;;;2.88;;
72319;SDS011;60269;52.502;16.732;2023-06-10T18:20:42;8.18;;;1.33;;
72319;SDS011;60269;52.502;16.732;2023-06-10T18:24:15;8.15;;;1.83;;
72319;SDS011;60269;52.502;16.732;2023-06-10T18:27:46;5.50;;;1.23;;
72319;SDS011;60269;52.502;16.732;2023-06-10T18:31:19;7.95;;;2.13;;
72319;SDS011;60269;52.502;16.732;2023-06-10T18:34:52;7.15;;;1.80;;
72319;SDS011;60269;52.502;16.732;2023-06-10T18:38:24;4.57;;;1.30;;
72319;SDS011;60269;52.502;16.732;2023-06-10T18:41:56;5.70;;;1.08;;
72319;SDS011;60269;52.502;16.732;2023-06-10T18:45:29;8.43;;;1.93;;
72319;SDS011;60269;52.502;16.732;2023-06-10T18:49:00;6.55;;;2.00;;
72319;SDS011;60269;52.502;16.732;2023-06-10T18:52:33;6.03;;;2.03;;
72319;SDS011;60269;52.502;16.732;2023-06-10T18:56:04;9.15;;;2.25;;
72319;SDS011;60269;52.502;16.732;2023-06-10T18:59:37;8.37;;;2.30;;
72319;SDS011;60269;52.502;16.732;2023-06-10T19:03:09;8.00;;;1.90;;
72319;SDS011;60269;52.502;16.732;2023-06-10T19:06:41;7.60;;;1.75;;
72319;SDS011;60269;52.502;16.732;2023-06-10T19:10:13;6.38;;;1.48;;
72319;SDS011;60269;52.502;16.732;2023-06-10T19:13:45;7.33;;;1.70;;
72319;SDS011;60269;52.502;16.732;2023-06-10T19:17:18;5.20;;;1.30;;
72319;SDS011;60269;52.502;16.732;2023-06-10T19:20:51;4.63;;;1.00;;
72319;SDS011;60269;52.502;16.732;2023-06-10T19:24:23;6.47;;;1.27;;
72319;SDS011;60269;52.502;16.732;2023-06-10T19:27:55;4.60;;;1.10;;
72319;SDS011;60269;52.502;16.732;2023-06-10T19:31:27;6.10;;;1.30;;
72319;SDS011;60269;52.502;16.732;2023-06-10T19:35:00;6.87;;;1.47;;
72319;SDS011;60269;52.502;16.732;2023-06-10T19:38:32;5.70;;;1.45;;
72319;SDS011;60269;52.502;16.732;2023-06-10T19:42:05;7.75;;;1.77;;
72319;SDS011;60269;52.502;16.732;2023-06-10T19:45:41;5.97;;;1.00;;
72319;SDS011;60269;52.502;16.732;2023-06-10T19:49:15;7.87;;;1.30;;
72319;SDS011;60269;52.502;16.732;2023-06-10T19:52:47;5.77;;;1.40;;
72319;SDS011;60269;52.502;16.732;2023-06-10T19:56:19;6.93;;;1.27;;
72319;SDS011;60269;52.502;16.732;2023-06-10T19:59:53;7.82;;;1.30;;
72319;SDS011;60269;52.502;16.732;2023-06-10T20:03:26;6.63;;;1.42;;
72319;SDS011;60269;52.502;16.732;2023-06-10T20:06:58;4.43;;;1.03;;
72319;SDS011;60269;52.502;16.732;2023-06-10T20:10:31;10.35;;;1.73;;
72319;SDS011;60269;52.502;16.732;2023-06-10T20:14:04;6.60;;;1.70;;
72319;SDS011;60269;52.502;16.732;2023-06-10T20:17:36;4.72;;;1.00;;
72319;SDS011;60269;52.502;16.732;2023-06-10T20:21:08;4.53;;;1.03;;
72319;SDS011;60269;52.502;16.732;2023-06-10T20:24:40;9.10;;;1.40;;
72319;SDS011;60269;52.502;16.732;2023-06-10T20:28:12;6.32;;;1.33;;
72319;SDS011;60269;52.502;16.732;2023-06-10T20:31:44;4.45;;;1.02;;
72319;SDS011;60269;52.502;16.732;2023-06-10T20:35:17;6.20;;;1.55;;
72319;SDS011;60269;52.502;16.732;2023-06-10T20:38:50;5.57;;;0.87;;
72319;SDS011;60269;52.502;16.732;2023-06-10T20:42:23;4.93;;;1.08;;
72319;SDS011;60269;52.502;16.732;2023-06-10T20:45:58;7.78;;;1.15;;
72319;SDS011;60269;52.502;16.732;2023-06-10T20:49:30;6.20;;;1.30;;
72319;SDS011;60269;52.502;16.732;2023-06-10T20:53:02;4.83;;;1.00;;
72319;SDS011;60269;52.502;16.732;2023-06-10T20:56:36;5.87;;;0.90;;
72319;SDS011;60269;52.502;16.732;2023-06-10T21:00:13;7.55;;;1.02;;
72319;SDS011;60269;52.502;16.732;2023-06-10T21:03:46;7.20;;;1.00;;
72319;SDS011;60269;52.502;16.732;2023-06-10T21:07:19;4.97;;;1.02;;
72319;SDS011;60269;52.502;16.732;2023-06-10T21:10:54;4.20;;;0.90;;
72319;SDS011;60269;52.502;16.732;2023-06-10T21:14:26;4.57;;;0.90;;
72319;SDS011;60269;52.502;16.732;2023-06-10T21:18:00;3.90;;;1.00;;
72319;SDS011;60269;52.502;16.732;2023-06-10T21:21:32;4.50;;;0.80;;
72319;SDS011;60269;52.502;16.732;2023-06-10T21:25:04;4.55;;;0.98;;
72319;SDS011;60269;52.502;16.732;2023-06-10T21:28:39;3.63;;;0.70;;
72319;SDS011;60269;52.502;16.732;2023-06-10T21:32:13;5.90;;;1.10;;